sensor_id;sensor_type;location;lat;lon;timestamp;temperature;humidity
23713;DHT22;12035;49.978;8.298;2022-11-15T00:01:15;11.90;73.60
23713;DHT22;12035;49.978;8.298;2022-11-15T00:06:13;11.90;73.90
23713;DHT22;12035;49.978;8.298;2022-11-15T00:11:12;11.90;73.90
23713;DHT22;12035;49.978;8.298;2022-11-15T00:16:10;11.90;74.10
23713;DHT22;12035;49.978;8.298;2022-11-15T00:21:10;11.90;74.20
23713;DHT22;12035;49.978;8.298;2022-11-15T00:26:11;11.90;74.20
23713;DHT22;12035;49.978;8.298;2022-11-15T00:31:12;11.90;74.30
23713;DHT22;12035;49.978;8.298;2022-11-15T00:36:10;12.00;74.30
23713;DHT22;12035;49.978;8.298;2022-11-15T00:41:07;12.00;74.30
23713;DHT22;12035;49.978;8.298;2022-11-15T00:46:05;12.00;74.30
23713;DHT22;12035;49.978;8.298;2022-11-15T00:51:05;12.00;74.30
23713;DHT22;12035;49.978;8.298;2022-11-15T00:56:02;12.00;75.30
23713;DHT22;12035;49.978;8.298;2022-11-15T01:01:06;12.00;74.60
23713;DHT22;12035;49.978;8.298;2022-11-15T01:06:06;12.00;74.80
23713;DHT22;12035;49.978;8.298;2022-11-15T01:11:05;12.00;74.70
23713;DHT22;12035;49.978;8.298;2022-11-15T01:16:07;12.00;74.70
23713;DHT22;12035;49.978;8.298;2022-11-15T01:21:08;12.00;74.80
23713;DHT22;12035;49.978;8.298;2022-11-15T01:26:09;12.00;74.80
23713;DHT22;12035;49.978;8.298;2022-11-15T01:31:13;12.00;74.80
23713;DHT22;12035;49.978;8.298;2022-11-15T01:36:15;12.10;75.10
23713;DHT22;12035;49.978;8.298;2022-11-15T01:41:15;12.10;75.20
23713;DHT22;12035;49.978;8.298;2022-11-15T01:46:26;12.10;75.20
23713;DHT22;12035;49.978;8.298;2022-11-15T01:51:29;12.10;75.50
23713;DHT22;12035;49.978;8.298;2022-11-15T01:56:30;12.10;75.40
23713;DHT22;12035;49.978;8.298;2022-11-15T02:01:31;12.10;75.40
23713;DHT22;12035;49.978;8.298;2022-11-15T02:06:30;12.10;75.50
23713;DHT22;12035;49.978;8.298;2022-11-15T02:11:28;12.10;75.50
23713;DHT22;12035;49.978;8.298;2022-11-15T02:16:29;12.10;75.50
23713;DHT22;12035;49.978;8.298;2022-11-15T02:21:36;12.10;76.50
23713;DHT22;12035;49.978;8.298;2022-11-15T02:27:05;12.10;75.70
23713;DHT22;12035;49.978;8.298;2022-11-15T02:32:29;12.10;76.00
23713;DHT22;12035;49.978;8.298;2022-11-15T02:37:34;12.10;75.60
23713;DHT22;12035;49.978;8.298;2022-11-15T02:42:37;12.10;75.80
23713;DHT22;12035;49.978;8.298;2022-11-15T02:47:57;12.10;75.80
23713;DHT22;12035;49.978;8.298;2022-11-15T02:52:56;12.10;76.00
23713;DHT22;12035;49.978;8.298;2022-11-15T02:58:05;12.10;76.00
23713;DHT22;12035;49.978;8.298;2022-11-15T03:03:38;12.10;76.20
23713;DHT22;12035;49.978;8.298;2022-11-15T03:08:48;12.10;76.30
23713;DHT22;12035;49.978;8.298;2022-11-15T03:13:57;12.10;76.00
23713;DHT22;12035;49.978;8.298;2022-11-15T03:18:59;12.10;76.10
23713;DHT22;12035;49.978;8.298;2022-11-15T03:24:03;12.10;76.10
23713;DHT22;12035;49.978;8.298;2022-11-15T03:29:06;12.10;76.20
23713;DHT22;12035;49.978;8.298;2022-11-15T03:34:12;12.10;76.40
23713;DHT22;12035;49.978;8.298;2022-11-15T03:39:16;12.10;76.70
23713;DHT22;12035;49.978;8.298;2022-11-15T03:44:17;12.10;76.70
23713;DHT22;12035;49.978;8.298;2022-11-15T03:49:24;12.10;76.90
23713;DHT22;12035;49.978;8.298;2022-11-15T03:54:22;12.10;77.00
23713;DHT22;12035;49.978;8.298;2022-11-15T03:59:20;12.20;77.00
23713;DHT22;12035;49.978;8.298;2022-11-15T04:04:17;12.10;76.90
23713;DHT22;12035;49.978;8.298;2022-11-15T04:09:15;12.10;77.10
23713;DHT22;12035;49.978;8.298;2022-11-15T04:14:12;12.20;77.40
23713;DHT22;12035;49.978;8.298;2022-11-15T04:19:09;12.20;77.30
23713;DHT22;12035;49.978;8.298;2022-11-15T04:24:25;12.30;77.40
23713;DHT22;12035;49.978;8.298;2022-11-15T04:29:22;12.30;77.40
23713;DHT22;12035;49.978;8.298;2022-11-15T04:34:32;12.50;77.40
23713;DHT22;12035;49.978;8.298;2022-11-15T04:39:31;12.50;77.30
23713;DHT22;12035;49.978;8.298;2022-11-15T04:44:28;12.60;77.30
23713;DHT22;12035;49.978;8.298;2022-11-15T04:49:25;12.70;77.20
23713;DHT22;12035;49.978;8.298;2022-11-15T04:54:22;12.70;77.10
23713;DHT22;12035;49.978;8.298;2022-11-15T04:59:20;12.80;76.90
23713;DHT22;12035;49.978;8.298;2022-11-15T05:04:17;12.80;76.70
23713;DHT22;12035;49.978;8.298;2022-11-15T05:09:18;12.80;76.90
23713;DHT22;12035;49.978;8.298;2022-11-15T05:14:16;12.80;76.90
23713;DHT22;12035;49.978;8.298;2022-11-15T05:19:15;12.90;76.90
23713;DHT22;12035;49.978;8.298;2022-11-15T05:24:12;12.90;76.90
23713;DHT22;12035;49.978;8.298;2022-11-15T05:29:09;12.90;76.90
23713;DHT22;12035;49.978;8.298;2022-11-15T05:34:06;12.90;76.60
23713;DHT22;12035;49.978;8.298;2022-11-15T05:39:06;12.90;76.40
23713;DHT22;12035;49.978;8.298;2022-11-15T05:44:06;12.90;76.50
23713;DHT22;12035;49.978;8.298;2022-11-15T05:49:05;13.00;76.70
23713;DHT22;12035;49.978;8.298;2022-11-15T05:54:06;12.90;76.70
23713;DHT22;12035;49.978;8.298;2022-11-15T05:59:03;12.90;76.70
23713;DHT22;12035;49.978;8.298;2022-11-15T06:04:01;12.90;76.70
23713;DHT22;12035;49.978;8.298;2022-11-15T06:08:58;12.90;76.60
23713;DHT22;12035;49.978;8.298;2022-11-15T06:13:56;12.90;76.70
23713;DHT22;12035;49.978;8.298;2022-11-15T06:18:53;12.90;76.80
23713;DHT22;12035;49.978;8.298;2022-11-15T06:23:50;12.90;76.90
23713;DHT22;12035;49.978;8.298;2022-11-15T06:28:47;13.00;76.90
23713;DHT22;12035;49.978;8.298;2022-11-15T06:33:46;12.90;77.20
23713;DHT22;12035;49.978;8.298;2022-11-15T06:38:48;13.00;76.70
23713;DHT22;12035;49.978;8.298;2022-11-15T06:43:46;13.00;76.70
23713;DHT22;12035;49.978;8.298;2022-11-15T06:48:43;13.00;76.80
23713;DHT22;12035;49.978;8.298;2022-11-15T06:53:41;13.00;76.70
23713;DHT22;12035;49.978;8.298;2022-11-15T06:58:38;13.00;77.00
23713;DHT22;12035;49.978;8.298;2022-11-15T07:03:36;13.00;77.00
23713;DHT22;12035;49.978;8.298;2022-11-15T07:08:34;13.00;77.00
23713;DHT22;12035;49.978;8.298;2022-11-15T07:13:34;13.00;77.10
23713;DHT22;12035;49.978;8.298;2022-11-15T07:18:34;13.00;77.20
23713;DHT22;12035;49.978;8.298;2022-11-15T07:23:31;13.00;77.30
23713;DHT22;12035;49.978;8.298;2022-11-15T07:28:29;13.00;77.30
23713;DHT22;12035;49.978;8.298;2022-11-15T07:33:27;13.10;77.50
23713;DHT22;12035;49.978;8.298;2022-11-15T07:38:24;13.10;77.50
23713;DHT22;12035;49.978;8.298;2022-11-15T07:43:21;13.20;77.60
23713;DHT22;12035;49.978;8.298;2022-11-15T07:48:19;13.20;77.50
23713;DHT22;12035;49.978;8.298;2022-11-15T07:53:17;13.20;77.50
23713;DHT22;12035;49.978;8.298;2022-11-15T07:58:14;13.30;77.60
23713;DHT22;12035;49.978;8.298;2022-11-15T08:03:12;13.30;77.50
23713;DHT22;12035;49.978;8.298;2022-11-15T08:08:11;13.40;77.50
23713;DHT22;12035;49.978;8.298;2022-11-15T08:13:11;13.40;77.40
23713;DHT22;12035;49.978;8.298;2022-11-15T08:18:11;13.50;77.50
23713;DHT22;12035;49.978;8.298;2022-11-15T08:23:11;13.50;77.60
23713;DHT22;12035;49.978;8.298;2022-11-15T08:28:10;13.60;77.70
23713;DHT22;12035;49.978;8.298;2022-11-15T08:33:10;13.60;77.60
23713;DHT22;12035;49.978;8.298;2022-11-15T08:38:09;13.60;77.70
23713;DHT22;12035;49.978;8.298;2022-11-15T08:43:06;13.60;77.70
23713;DHT22;12035;49.978;8.298;2022-11-15T08:48:05;13.70;77.80
23713;DHT22;12035;49.978;8.298;2022-11-15T08:53:06;13.70;78.00
23713;DHT22;12035;49.978;8.298;2022-11-15T08:58:04;13.70;78.30
23713;DHT22;12035;49.978;8.298;2022-11-15T09:03:04;13.70;78.20
23713;DHT22;12035;49.978;8.298;2022-11-15T09:08:02;13.70;78.30
23713;DHT22;12035;49.978;8.298;2022-11-15T09:13:00;13.70;78.20
23713;DHT22;12035;49.978;8.298;2022-11-15T09:17:58;13.70;78.20
23713;DHT22;12035;49.978;8.298;2022-11-15T09:22:59;13.70;78.30
23713;DHT22;12035;49.978;8.298;2022-11-15T09:27:56;13.70;78.40
23713;DHT22;12035;49.978;8.298;2022-11-15T09:32:53;13.80;78.50
23713;DHT22;12035;49.978;8.298;2022-11-15T09:37:50;13.80;78.60
23713;DHT22;12035;49.978;8.298;2022-11-15T09:43:00;13.80;78.60
23713;DHT22;12035;49.978;8.298;2022-11-15T09:53:51;13.80;78.60
23713;DHT22;12035;49.978;8.298;2022-11-15T09:58:59;13.80;78.70
23713;DHT22;12035;49.978;8.298;2022-11-15T10:04:05;13.90;78.80
23713;DHT22;12035;49.978;8.298;2022-11-15T10:09:06;13.90;78.70
23713;DHT22;12035;49.978;8.298;2022-11-15T10:14:14;13.90;78.80
23713;DHT22;12035;49.978;8.298;2022-11-15T10:19:20;14.00;78.80
23713;DHT22;12035;49.978;8.298;2022-11-15T10:24:26;14.00;78.80
23713;DHT22;12035;49.978;8.298;2022-11-15T10:29:26;14.00;78.80
23713;DHT22;12035;49.978;8.298;2022-11-15T10:34:24;14.10;78.80
23713;DHT22;12035;49.978;8.298;2022-11-15T10:39:22;14.10;78.90
23713;DHT22;12035;49.978;8.298;2022-11-15T10:44:30;14.10;78.90
23713;DHT22;12035;49.978;8.298;2022-11-15T10:49:29;14.20;79.20
23713;DHT22;12035;49.978;8.298;2022-11-15T10:54:29;14.20;79.20
23713;DHT22;12035;49.978;8.298;2022-11-15T10:59:32;14.20;79.30
23713;DHT22;12035;49.978;8.298;2022-11-15T11:04:49;14.30;79.40
23713;DHT22;12035;49.978;8.298;2022-11-15T11:09:57;14.40;79.30
23713;DHT22;12035;49.978;8.298;2022-11-15T11:14:58;14.40;79.10
23713;DHT22;12035;49.978;8.298;2022-11-15T11:20:02;14.50;79.10
23713;DHT22;12035;49.978;8.298;2022-11-15T11:25:16;14.50;79.00
23713;DHT22;12035;49.978;8.298;2022-11-15T11:30:21;14.60;79.00
23713;DHT22;12035;49.978;8.298;2022-11-15T11:35:23;14.80;78.70
23713;DHT22;12035;49.978;8.298;2022-11-15T11:40:29;14.80;77.90
23713;DHT22;12035;49.978;8.298;2022-11-15T11:45:49;14.90;77.20
23713;DHT22;12035;49.978;8.298;2022-11-15T11:50:56;14.90;76.70
23713;DHT22;12035;49.978;8.298;2022-11-15T11:55:58;15.00;77.80
23713;DHT22;12035;49.978;8.298;2022-11-15T12:01:10;15.00;76.50
23713;DHT22;12035;49.978;8.298;2022-11-15T12:06:23;15.00;76.40
23713;DHT22;12035;49.978;8.298;2022-11-15T12:11:28;15.00;76.30
23713;DHT22;12035;49.978;8.298;2022-11-15T12:16:30;15.10;76.40
23713;DHT22;12035;49.978;8.298;2022-11-15T12:21:39;15.20;76.30
23713;DHT22;12035;49.978;8.298;2022-11-15T12:26:42;15.20;75.80
23713;DHT22;12035;49.978;8.298;2022-11-15T12:31:48;15.20;75.80
23713;DHT22;12035;49.978;8.298;2022-11-15T12:36:48;15.20;75.80
23713;DHT22;12035;49.978;8.298;2022-11-15T12:47:34;15.30;75.00
23713;DHT22;12035;49.978;8.298;2022-11-15T12:52:31;15.30;75.00
23713;DHT22;12035;49.978;8.298;2022-11-15T13:02:48;15.40;74.90
23713;DHT22;12035;49.978;8.298;2022-11-15T13:07:56;15.40;74.80
23713;DHT22;12035;49.978;8.298;2022-11-15T13:12:56;15.40;74.50
23713;DHT22;12035;49.978;8.298;2022-11-15T13:17:56;15.40;74.70
23713;DHT22;12035;49.978;8.298;2022-11-15T13:23:01;15.40;74.90
23713;DHT22;12035;49.978;8.298;2022-11-15T13:28:00;15.40;75.00
23713;DHT22;12035;49.978;8.298;2022-11-15T13:33:15;15.50;74.90
23713;DHT22;12035;49.978;8.298;2022-11-15T13:38:19;15.40;74.70
23713;DHT22;12035;49.978;8.298;2022-11-15T13:43:34;15.50;75.20
23713;DHT22;12035;49.978;8.298;2022-11-15T13:48:34;15.50;74.90
23713;DHT22;12035;49.978;8.298;2022-11-15T13:53:32;15.50;75.00
23713;DHT22;12035;49.978;8.298;2022-11-15T13:58:30;15.50;75.00
23713;DHT22;12035;49.978;8.298;2022-11-15T14:03:29;15.50;74.80
23713;DHT22;12035;49.978;8.298;2022-11-15T14:08:29;15.50;74.90
23713;DHT22;12035;49.978;8.298;2022-11-15T14:13:29;15.50;74.90
23713;DHT22;12035;49.978;8.298;2022-11-15T14:18:49;15.50;75.00
23713;DHT22;12035;49.978;8.298;2022-11-15T14:23:48;15.50;75.20
23713;DHT22;12035;49.978;8.298;2022-11-15T14:28:46;15.50;75.20
23713;DHT22;12035;49.978;8.298;2022-11-15T14:33:43;15.50;75.20
23713;DHT22;12035;49.978;8.298;2022-11-15T14:38:41;15.50;75.30
23713;DHT22;12035;49.978;8.298;2022-11-15T14:43:40;15.40;75.30
23713;DHT22;12035;49.978;8.298;2022-11-15T14:48:37;15.40;75.50
23713;DHT22;12035;49.978;8.298;2022-11-15T14:53:34;15.40;75.50
23713;DHT22;12035;49.978;8.298;2022-11-15T14:58:31;15.40;75.60
23713;DHT22;12035;49.978;8.298;2022-11-15T15:03:30;15.40;75.60
23713;DHT22;12035;49.978;8.298;2022-11-15T15:08:27;15.40;75.80
23713;DHT22;12035;49.978;8.298;2022-11-15T15:13:24;15.30;75.80
23713;DHT22;12035;49.978;8.298;2022-11-15T15:18:21;15.30;75.90
23713;DHT22;12035;49.978;8.298;2022-11-15T15:23:19;15.30;75.90
23713;DHT22;12035;49.978;8.298;2022-11-15T15:28:18;15.30;75.90
23713;DHT22;12035;49.978;8.298;2022-11-15T15:33:15;15.30;75.80
23713;DHT22;12035;49.978;8.298;2022-11-15T15:38:13;15.30;75.90
23713;DHT22;12035;49.978;8.298;2022-11-15T15:43:12;15.30;75.80
23713;DHT22;12035;49.978;8.298;2022-11-15T15:48:11;15.30;75.70
23713;DHT22;12035;49.978;8.298;2022-11-15T15:53:11;15.30;75.70
23713;DHT22;12035;49.978;8.298;2022-11-15T15:58:09;15.30;75.60
23713;DHT22;12035;49.978;8.298;2022-11-15T16:03:07;15.30;75.60
23713;DHT22;12035;49.978;8.298;2022-11-15T16:08:04;15.30;75.50
23713;DHT22;12035;49.978;8.298;2022-11-15T16:13:02;15.30;75.50
23713;DHT22;12035;49.978;8.298;2022-11-15T16:18:00;15.30;75.50
23713;DHT22;12035;49.978;8.298;2022-11-15T16:22:59;15.30;75.40
23713;DHT22;12035;49.978;8.298;2022-11-15T16:27:56;15.30;75.50
23713;DHT22;12035;49.978;8.298;2022-11-15T16:32:54;15.20;75.60
23713;DHT22;12035;49.978;8.298;2022-11-15T16:37:51;15.20;75.60
23713;DHT22;12035;49.978;8.298;2022-11-15T16:42:49;15.20;75.60
23713;DHT22;12035;49.978;8.298;2022-11-15T16:47:46;15.10;75.60
23713;DHT22;12035;49.978;8.298;2022-11-15T16:52:43;15.10;75.60
23713;DHT22;12035;49.978;8.298;2022-11-15T16:57:40;15.10;75.60
23713;DHT22;12035;49.978;8.298;2022-11-15T17:02:39;15.10;75.60
23713;DHT22;12035;49.978;8.298;2022-11-15T17:07:36;15.10;75.70
23713;DHT22;12035;49.978;8.298;2022-11-15T17:12:33;15.10;75.60
23713;DHT22;12035;49.978;8.298;2022-11-15T17:17:31;15.10;75.70
23713;DHT22;12035;49.978;8.298;2022-11-15T17:22:30;15.00;75.60
23713;DHT22;12035;49.978;8.298;2022-11-15T17:27:27;15.00;75.70
23713;DHT22;12035;49.978;8.298;2022-11-15T17:32:24;15.00;75.70
23713;DHT22;12035;49.978;8.298;2022-11-15T17:37:21;15.00;75.70
23713;DHT22;12035;49.978;8.298;2022-11-15T17:42:19;15.00;75.70
23713;DHT22;12035;49.978;8.298;2022-11-15T17:47:16;15.00;75.70
23713;DHT22;12035;49.978;8.298;2022-11-15T17:52:14;15.00;75.70
23713;DHT22;12035;49.978;8.298;2022-11-15T17:57:10;15.00;75.60
23713;DHT22;12035;49.978;8.298;2022-11-15T18:02:09;14.90;75.60
23713;DHT22;12035;49.978;8.298;2022-11-15T18:07:06;14.90;75.40
23713;DHT22;12035;49.978;8.298;2022-11-15T18:12:06;15.00;75.60
23713;DHT22;12035;49.978;8.298;2022-11-15T18:17:03;14.90;75.60
23713;DHT22;12035;49.978;8.298;2022-11-15T18:22:01;15.00;75.70
23713;DHT22;12035;49.978;8.298;2022-11-15T18:27:01;15.00;75.60
23713;DHT22;12035;49.978;8.298;2022-11-15T18:31:59;15.00;75.60
23713;DHT22;12035;49.978;8.298;2022-11-15T18:37:01;15.00;75.70
23713;DHT22;12035;49.978;8.298;2022-11-15T18:41:58;15.00;75.70
23713;DHT22;12035;49.978;8.298;2022-11-15T18:46:56;15.00;75.70
23713;DHT22;12035;49.978;8.298;2022-11-15T18:51:53;15.00;75.70
23713;DHT22;12035;49.978;8.298;2022-11-15T18:56:52;15.00;75.70
23713;DHT22;12035;49.978;8.298;2022-11-15T19:01:49;15.00;75.70
23713;DHT22;12035;49.978;8.298;2022-11-15T19:06:48;15.00;75.70
23713;DHT22;12035;49.978;8.298;2022-11-15T19:11:47;15.00;75.70
23713;DHT22;12035;49.978;8.298;2022-11-15T19:16:47;15.00;75.70
23713;DHT22;12035;49.978;8.298;2022-11-15T19:21:46;15.00;75.70
23713;DHT22;12035;49.978;8.298;2022-11-15T19:26:43;15.00;75.70
23713;DHT22;12035;49.978;8.298;2022-11-15T19:31:41;15.00;75.80
23713;DHT22;12035;49.978;8.298;2022-11-15T19:36:41;15.00;75.80
23713;DHT22;12035;49.978;8.298;2022-11-15T19:41:40;14.90;75.90
23713;DHT22;12035;49.978;8.298;2022-11-15T19:46:39;14.90;76.00
23713;DHT22;12035;49.978;8.298;2022-11-15T19:51:37;14.90;76.10
23713;DHT22;12035;49.978;8.298;2022-11-15T19:56:37;14.90;76.20
23713;DHT22;12035;49.978;8.298;2022-11-15T20:01:36;14.90;76.40
23713;DHT22;12035;49.978;8.298;2022-11-15T20:06:34;14.80;76.50
23713;DHT22;12035;49.978;8.298;2022-11-15T20:11:35;14.80;76.60
23713;DHT22;12035;49.978;8.298;2022-11-15T20:16:35;14.80;77.50
23713;DHT22;12035;49.978;8.298;2022-11-15T20:21:33;14.80;76.60
23713;DHT22;12035;49.978;8.298;2022-11-15T20:26:31;14.80;76.60
23713;DHT22;12035;49.978;8.298;2022-11-15T20:31:29;14.80;76.60
23713;DHT22;12035;49.978;8.298;2022-11-15T20:36:27;14.80;76.60
23713;DHT22;12035;49.978;8.298;2022-11-15T20:41:25;14.70;76.30
23713;DHT22;12035;49.978;8.298;2022-11-15T20:46:22;14.60;76.40
23713;DHT22;12035;49.978;8.298;2022-11-15T20:51:21;14.60;76.50
23713;DHT22;12035;49.978;8.298;2022-11-15T20:56:20;14.60;76.60
23713;DHT22;12035;49.978;8.298;2022-11-15T21:01:19;14.60;76.70
23713;DHT22;12035;49.978;8.298;2022-11-15T21:06:17;14.60;76.70
23713;DHT22;12035;49.978;8.298;2022-11-15T21:11:16;14.60;76.70
23713;DHT22;12035;49.978;8.298;2022-11-15T21:16:31;14.60;76.70
23713;DHT22;12035;49.978;8.298;2022-11-15T21:21:27;14.60;76.70
23713;DHT22;12035;49.978;8.298;2022-11-15T21:26:26;14.60;76.60
23713;DHT22;12035;49.978;8.298;2022-11-15T21:31:23;14.60;76.60
23713;DHT22;12035;49.978;8.298;2022-11-15T21:36:20;14.60;76.80
23713;DHT22;12035;49.978;8.298;2022-11-15T21:41:19;14.60;76.90
23713;DHT22;12035;49.978;8.298;2022-11-15T21:46:17;14.60;77.00
23713;DHT22;12035;49.978;8.298;2022-11-15T21:51:14;14.60;76.90
23713;DHT22;12035;49.978;8.298;2022-11-15T21:56:11;14.60;76.90
23713;DHT22;12035;49.978;8.298;2022-11-15T22:01:10;14.70;76.90
23713;DHT22;12035;49.978;8.298;2022-11-15T22:06:25;14.60;76.90
23713;DHT22;12035;49.978;8.298;2022-11-15T22:11:22;14.60;77.00
23713;DHT22;12035;49.978;8.298;2022-11-15T22:16:20;14.60;77.10
23713;DHT22;12035;49.978;8.298;2022-11-15T22:21:18;14.50;77.20
23713;DHT22;12035;49.978;8.298;2022-11-15T22:26:18;14.50;77.30
23713;DHT22;12035;49.978;8.298;2022-11-15T22:31:15;14.50;77.50
23713;DHT22;12035;49.978;8.298;2022-11-15T22:36:12;14.50;77.60
23713;DHT22;12035;49.978;8.298;2022-11-15T22:41:10;14.40;77.50
23713;DHT22;12035;49.978;8.298;2022-11-15T22:46:09;14.40;77.70
23713;DHT22;12035;49.978;8.298;2022-11-15T22:51:06;14.40;78.00
23713;DHT22;12035;49.978;8.298;2022-11-15T22:56:05;14.40;78.10
23713;DHT22;12035;49.978;8.298;2022-11-15T23:01:03;14.30;78.20
23713;DHT22;12035;49.978;8.298;2022-11-15T23:06:04;14.40;78.40
23713;DHT22;12035;49.978;8.298;2022-11-15T23:11:03;14.30;78.40
23713;DHT22;12035;49.978;8.298;2022-11-15T23:16:19;14.30;78.40
23713;DHT22;12035;49.978;8.298;2022-11-15T23:21:21;14.30;78.50
23713;DHT22;12035;49.978;8.298;2022-11-15T23:26:36;14.30;78.60
23713;DHT22;12035;49.978;8.298;2022-11-15T23:31:34;14.30;78.60
23713;DHT22;12035;49.978;8.298;2022-11-15T23:36:50;14.30;78.60
23713;DHT22;12035;49.978;8.298;2022-11-15T23:41:47;14.20;78.70
23713;DHT22;12035;49.978;8.298;2022-11-15T23:46:44;14.20;78.70
23713;DHT22;12035;49.978;8.298;2022-11-15T23:51:42;14.30;78.90
23713;DHT22;12035;49.978;8.298;2022-11-15T23:56:40;14.20;78.90
